createdAt,value
2018-09-11T08:34:52.748Z,44.995117
2018-09-11T08:34:56.147Z,44.995117
2018-09-11T08:34:59.828Z,45.092773
2018-09-11T08:35:03.227Z,45.391846
2018-09-11T08:35:06.668Z,45.19043
2018-09-11T08:35:10.075Z,45.013428
2018-09-11T08:35:13.725Z,45.013428
2018-09-11T08:35:17.639Z,45.214844
2018-09-11T08:35:22.110Z,45.3125
2018-09-11T08:35:25.538Z,45.513916
2018-09-11T08:35:29.119Z,45.532227
2018-09-11T08:35:32.481Z,45.629883
2018-09-11T08:35:35.881Z,45.831299
2018-09-11T08:35:39.451Z,46.026611
2018-09-11T08:35:42.898Z,46.026611
2018-09-11T08:35:46.281Z,46.325684
2018-09-11T08:35:49.681Z,47.216797
2018-09-11T08:35:53.132Z,47.119141
2018-09-11T08:35:56.521Z,46.520996
2018-09-11T08:36:00.939Z,46.520996
2018-09-11T08:36:04.357Z,46.624756
2018-09-11T08:36:07.768Z,46.643066
2018-09-11T08:36:11.198Z,46.325684
2018-09-11T08:36:14.641Z,46.124268
2018-09-11T08:36:18.049Z,46.325684
2018-09-11T08:36:21.459Z,46.325684
2018-09-11T08:36:24.868Z,46.228027
2018-09-11T08:36:28.308Z,46.026611
2018-09-11T08:36:31.729Z,45.806885
2018-09-11T08:36:35.159Z,45.709229
2018-09-11T08:36:38.594Z,45.709229
2018-09-11T08:36:42.027Z,45.489502
2018-09-11T08:36:45.468Z,45.294189
2018-09-11T08:36:48.879Z,45.294189
2018-09-11T08:36:52.308Z,45.092773
2018-09-11T08:36:55.737Z,45.092773
2018-09-11T08:36:59.148Z,45.074463
2018-09-11T08:37:02.568Z,44.873047
2018-09-11T08:37:05.999Z,44.580078
2018-09-11T08:37:09.449Z,44.378662
2018-09-11T08:37:12.879Z,44.281006
2018-09-11T08:37:16.329Z,44.281006
2018-09-11T08:37:19.780Z,44.476318
2018-09-11T08:37:23.219Z,44.580078
2018-09-11T08:37:26.639Z,44.476318
2018-09-11T08:37:30.059Z,44.677734
2018-09-11T08:37:33.490Z,44.677734
2018-09-11T08:37:36.882Z,44.378662
2018-09-11T08:37:40.368Z,44.281006
2018-09-11T08:37:43.828Z,44.281006
2018-09-11T08:37:47.259Z,44.378662
2018-09-11T08:37:50.699Z,44.476318
2018-09-11T08:37:54.119Z,44.775391
2018-09-11T08:37:57.528Z,44.580078
2018-09-11T08:38:00.963Z,44.378662
2018-09-11T08:38:04.428Z,44.378662
2018-09-11T08:38:07.868Z,44.360352
2018-09-11T08:38:11.542Z,44.158936
2018-09-11T08:38:14.908Z,44.061279
2018-09-11T08:38:18.333Z,44.061279
2018-09-11T08:38:21.749Z,44.061279
2018-09-11T08:38:25.209Z,44.061279
2018-09-11T08:38:28.618Z,44.061279
2018-09-11T08:38:32.019Z,44.061279
2018-09-11T08:38:35.488Z,44.061279
2018-09-11T08:38:38.928Z,44.061279
2018-09-11T08:38:42.357Z,44.061279
2018-09-11T08:38:45.769Z,44.158936
2018-09-11T08:38:49.179Z,44.158936
2018-09-11T08:38:52.579Z,44.158936
2018-09-11T08:38:57.024Z,44.061279
2018-09-11T08:39:00.458Z,44.262695
2018-09-11T08:39:03.909Z,44.042969
2018-09-11T08:39:07.318Z,43.939209
2018-09-11T08:39:10.738Z,43.743896
2018-09-11T08:39:14.149Z,43.743896
2018-09-11T08:39:17.599Z,43.743896
2018-09-11T08:39:21.022Z,43.450928
2018-09-11T08:39:24.449Z,43.450928
2018-09-11T08:39:27.899Z,43.841553
2018-09-11T08:39:31.320Z,43.64624
2018-09-11T08:39:34.738Z,43.64624
2018-09-11T08:39:38.159Z,43.920898
2018-09-11T08:39:41.611Z,43.920898
2018-09-11T08:39:45.059Z,43.725586
2018-09-11T08:39:48.548Z,43.823242
2018-09-11T08:39:52.070Z,43.823242
2018-09-11T08:39:55.549Z,43.328857
2018-09-11T08:39:58.998Z,43.029785
2018-09-11T08:40:02.428Z,43.328857
2018-09-11T08:40:05.879Z,43.206787
2018-09-11T08:40:09.338Z,43.011475
2018-09-11T08:40:12.920Z,42.816162
2018-09-11T08:40:16.349Z,42.718506
2018-09-11T08:40:19.738Z,42.614746
2018-09-11T08:54:59.707Z,35.089111
2018-09-11T08:55:05.228Z,34.777832
2018-09-11T08:55:10.821Z,34.680176
2018-09-11T08:55:16.342Z,34.680176
2018-09-11T08:55:21.870Z,34.875488
2018-09-11T08:55:27.511Z,34.484863
2018-09-11T08:55:33.070Z,34.680176
2018-09-11T08:55:38.621Z,34.58252
2018-09-11T08:55:44.250Z,34.387207
2018-09-11T08:55:49.827Z,34.277344
2018-09-11T08:55:55.470Z,34.179688
2018-09-11T08:56:01.029Z,34.082031
2018-09-11T08:56:06.590Z,33.984375
2018-09-11T08:56:12.306Z,33.984375
2018-09-11T08:56:17.908Z,34.082031
2018-09-11T08:56:23.499Z,34.387207
2018-09-11T08:56:29.151Z,35.559082
2018-09-11T08:56:34.716Z,35.186768
2018-09-11T08:56:40.259Z,34.991455
2018-09-11T08:56:45.835Z,34.991455
2018-09-11T08:56:51.406Z,34.777832
2018-09-11T08:56:57.108Z,34.680176
2018-09-11T08:57:02.536Z,34.680176
2018-09-11T08:57:08.037Z,34.570312
2018-09-11T08:57:13.591Z,36.340332
2018-09-11T08:57:31.869Z,34.289551
2018-09-11T08:57:36.470Z,34.387207
2018-09-11T08:57:41.068Z,34.472656
2018-09-11T08:57:45.628Z,34.472656
2018-09-11T08:57:50.188Z,34.179688
2018-09-11T08:57:54.780Z,34.277344
2018-09-11T08:57:59.348Z,34.191895
2018-09-11T08:58:03.953Z,34.289551
2018-09-11T08:58:08.500Z,34.387207
2018-09-11T08:58:13.109Z,34.387207
2018-09-11T08:58:17.820Z,34.387207
2018-09-11T08:58:23.395Z,34.387207
2018-09-11T08:58:28.095Z,34.289551
2018-09-11T08:58:32.892Z,34.191895
2018-09-11T08:58:37.533Z,34.082031
2018-09-11T08:58:42.143Z,33.984375
2018-09-11T08:58:46.627Z,33.886719
2018-09-11T08:58:51.380Z,33.886719
2018-09-11T08:58:56.029Z,33.898926
2018-09-11T08:59:00.632Z,33.996582
2018-09-11T08:59:05.309Z,34.191895
2018-09-11T08:59:09.913Z,34.191895
2018-09-11T08:59:14.478Z,34.307861
2018-09-11T08:59:19.111Z,34.405518
2018-09-11T08:59:23.750Z,34.60083
2018-09-11T08:59:28.393Z,34.60083
2018-09-11T08:59:33.022Z,34.503174
2018-09-11T08:59:37.599Z,34.503174
2018-09-11T08:59:42.312Z,34.503174
2018-09-11T08:59:46.949Z,34.60083
2018-09-11T08:59:51.549Z,34.405518
2018-09-11T08:59:56.230Z,34.405518
2018-09-11T09:00:00.789Z,34.60083
2018-09-11T09:00:05.317Z,34.698486
2018-09-11T09:00:10.034Z,34.680176
2018-09-11T09:00:14.582Z,34.484863
2018-09-11T09:00:19.101Z,34.484863
2018-09-11T09:00:23.668Z,34.484863
2018-09-11T09:00:28.285Z,34.484863
2018-09-11T09:00:32.869Z,34.875488
2018-09-11T09:00:37.502Z,34.875488
2018-09-11T09:00:42.143Z,34.777832
2018-09-11T09:00:46.678Z,35.070801
2018-09-11T09:00:51.309Z,34.680176
2018-09-11T09:00:55.952Z,34.58252
2018-09-11T09:01:00.509Z,34.387207
2018-09-11T09:01:05.078Z,34.387207
2018-09-11T09:01:09.630Z,34.387207
2018-09-11T09:01:14.152Z,34.375
2018-09-11T09:01:18.747Z,34.570312
2018-09-11T09:01:23.380Z,34.667969
2018-09-11T09:01:27.988Z,34.863281
2018-09-11T09:01:32.581Z,34.960938
2018-09-11T09:01:38.189Z,34.472656
2018-09-11T09:01:42.789Z,34.277344
2018-09-11T09:01:47.384Z,34.375
2018-09-11T09:01:51.956Z,34.179688
2018-09-11T09:01:56.508Z,33.984375
2018-09-11T09:02:01.107Z,34.375
2018-09-11T09:02:05.701Z,34.973145
2018-09-11T09:02:10.228Z,34.58252
2018-09-11T09:02:14.837Z,34.484863
2018-09-11T09:02:19.393Z,34.484863
2018-09-11T09:02:23.958Z,34.387207
2018-09-11T09:02:29.468Z,34.277344
2018-09-11T09:02:34.020Z,34.289551
2018-09-11T09:02:38.548Z,34.179688
2018-09-11T09:02:43.108Z,34.082031
2018-09-11T09:02:47.660Z,33.996582
2018-09-11T09:02:52.228Z,33.996582
2018-09-11T09:02:56.789Z,34.094238
2018-09-11T09:03:01.350Z,34.307861
2018-09-11T09:03:05.908Z,34.289551
2018-09-11T09:03:10.511Z,34.387207
2018-09-11T09:03:15.029Z,34.289551
2018-09-11T09:03:19.601Z,34.289551
2018-09-11T09:03:24.179Z,34.191895
2018-09-11T09:03:28.749Z,34.094238
2018-09-11T09:03:33.302Z,33.996582
2018-09-11T09:03:37.869Z,33.996582
2018-09-11T09:03:42.429Z,33.886719
2018-09-11T09:03:46.988Z,33.886719
2018-09-11T09:03:51.507Z,33.886719
2018-09-11T09:03:56.028Z,33.886719
2018-09-11T09:04:00.589Z,33.789062
2018-09-11T09:04:05.195Z,33.789062
2018-09-11T09:04:09.710Z,33.691406
2018-09-11T09:04:14.275Z,33.691406
2018-09-11T09:04:18.820Z,33.575439
2018-09-11T09:04:23.391Z,33.575439
2018-09-11T09:04:27.988Z,33.575439
2018-09-11T09:04:32.551Z,33.477783
2018-09-11T09:04:37.115Z,33.380127
2018-09-11T09:04:41.674Z,33.282471
2018-09-11T09:04:46.309Z,33.477783
2018-09-11T09:04:51.028Z,33.575439
2018-09-11T09:04:55.588Z,35.040283
2018-09-11T09:05:00.148Z,36.309814
2018-09-11T09:05:04.700Z,35.15625
2018-09-11T09:05:09.549Z,33.898926
2018-09-11T09:05:14.157Z,33.917236
2018-09-11T09:05:18.860Z,34.228516
2018-09-11T09:05:23.340Z,34.539795
2018-09-11T09:05:28.019Z,34.960938
2018-09-11T09:05:32.548Z,35.467529
2018-09-11T09:05:37.143Z,36.077881
2018-09-11T09:05:41.861Z,36.584473
2018-09-11T09:05:46.472Z,36.993408
2018-09-11T09:05:51.269Z,37.518311
2018-09-11T09:05:55.869Z,38.031006
2018-09-11T09:06:00.619Z,38.635254
2018-09-11T09:06:05.192Z,39.050293
2018-09-11T09:06:09.789Z,39.562988
2018-09-11T09:06:14.428Z,39.971924
2018-09-11T09:06:19.007Z,40.386963
2018-09-11T09:06:23.632Z,40.899658
2018-09-11T09:06:28.228Z,41.314697
2018-09-11T09:06:32.779Z,41.63208
2018-09-11T09:06:37.340Z,42.047119
2018-09-11T09:06:41.870Z,42.462158
2018-09-11T09:06:46.468Z,42.877197
2018-09-11T09:06:51.081Z,43.07251
2018-09-11T09:06:55.701Z,43.389893
2018-09-11T09:07:00.304Z,43.804932
2018-09-11T09:07:04.869Z,44.20166
2018-09-11T09:07:09.480Z,44.622803
2018-09-11T09:07:14.107Z,44.915771
2018-09-11T09:07:18.709Z,45.233154
2018-09-11T09:07:23.302Z,45.532227
2018-09-11T09:07:27.830Z,45.849609
2018-09-11T09:07:32.388Z,46.148682
2018-09-11T09:07:36.948Z,46.466064
2018-09-11T09:07:41.508Z,46.66748
2018-09-11T09:07:46.068Z,46.789551
2018-09-11T09:07:50.589Z,46.984863
2018-09-11T09:07:55.139Z,47.186279
2018-09-11T09:07:59.667Z,47.503662
2018-09-11T09:08:04.227Z,47.705078
2018-09-11T09:08:08.751Z,47.900391
2018-09-11T09:08:13.437Z,48.00415
2018-09-11T09:08:18.059Z,48.126221
2018-09-11T09:08:22.589Z,48.321533
2018-09-11T09:08:27.188Z,48.620605
2018-09-11T09:08:31.708Z,48.718262
2018-09-11T09:08:36.268Z,48.718262
2018-09-11T09:08:40.828Z,48.840332
2018-09-11T09:08:45.390Z,48.840332
2018-09-11T09:08:49.910Z,48.937988
2018-09-11T09:08:54.427Z,49.041748
2018-09-11T09:08:58.989Z,49.139404
2018-09-11T09:09:03.549Z,49.237061
2018-09-11T09:09:08.181Z,49.34082
2018-09-11T09:09:12.708Z,49.34082
2018-09-11T09:09:17.268Z,49.462891
2018-09-11T09:09:21.828Z,49.658203
2018-09-11T09:09:26.381Z,49.755859
2018-09-11T09:09:30.908Z,49.755859
2018-09-11T09:09:35.701Z,49.859619
2018-09-11T09:09:40.149Z,49.957275
2018-09-11T09:09:44.700Z,49.859619
2018-09-11T09:09:49.221Z,49.859619
2018-09-11T09:09:53.840Z,49.859619
2018-09-11T09:10:17.150Z,50.256348
2018-09-11T09:10:21.748Z,50.256348
2018-09-11T09:10:26.268Z,50.256348
2018-09-11T09:10:30.868Z,50.256348
2018-09-11T09:10:35.460Z,50.280762
2018-09-11T09:10:40.069Z,50.378418
2018-09-11T09:10:44.677Z,50.378418
2018-09-11T09:10:49.179Z,50.280762
2018-09-11T09:10:53.711Z,50.280762
2018-09-11T09:10:58.356Z,50.378418
2018-09-11T09:11:02.908Z,50.579834
2018-09-11T09:11:07.589Z,50.67749
2018-09-11T09:11:12.184Z,50.67749
2018-09-11T09:11:16.756Z,50.67749
2018-09-11T09:11:21.310Z,50.579834
2018-09-11T09:11:25.867Z,50.604248
2018-09-11T09:11:30.460Z,50.701904
2018-09-11T09:11:35.021Z,50.799561
2018-09-11T09:11:39.589Z,51.495361
2018-09-11T09:11:44.188Z,51.599121
2018-09-11T09:11:48.707Z,51.300049
2018-09-11T09:11:53.381Z,51.300049
2018-09-11T09:11:57.939Z,51.196289
2018-09-11T09:12:02.470Z,51.300049
2018-09-11T09:12:07.038Z,51.324463
2018-09-11T09:12:11.589Z,51.519775
2018-09-11T09:12:16.161Z,51.623535
2018-09-11T09:12:20.830Z,51.623535
2018-09-11T09:12:25.428Z,51.721191
2018-09-11T09:12:30.020Z,51.818848
2018-09-11T09:12:34.590Z,51.818848
2018-09-11T09:12:40.148Z,51.916504
2018-09-11T09:12:44.740Z,51.916504
2018-09-11T09:12:49.268Z,51.916504
2018-09-11T09:12:53.829Z,51.916504
2018-09-11T09:12:58.428Z,51.916504
2018-09-11T09:13:03.068Z,52.020264
2018-09-11T09:13:07.589Z,52.020264
2018-09-11T09:13:12.140Z,51.916504
2018-09-11T09:13:16.741Z,51.916504
2018-09-11T09:13:21.278Z,51.916504
2018-09-11T09:13:25.859Z,51.916504
2018-09-11T09:13:30.429Z,51.916504
2018-09-11T09:13:34.990Z,51.916504
2018-09-11T09:13:39.540Z,51.818848
2018-09-11T09:13:44.101Z,51.721191
2018-09-11T09:13:48.674Z,51.623535
2018-09-11T09:13:53.267Z,51.495361
2018-09-11T09:13:57.910Z,51.397705
2018-09-11T09:14:02.468Z,51.397705
2018-09-11T09:14:07.021Z,51.397705
2018-09-11T09:14:11.595Z,51.397705
2018-09-11T09:14:16.189Z,51.397705
2018-09-11T09:14:20.788Z,51.300049
2018-09-11T09:14:25.348Z,51.196289
2018-09-11T09:14:29.948Z,51.196289
2018-09-11T09:14:34.512Z,51.196289
2018-09-11T09:14:39.068Z,51.300049
2018-09-11T09:14:43.598Z,51.196289
2018-09-11T09:14:48.188Z,51.098633
2018-09-11T09:14:52.710Z,51.123047
2018-09-11T09:14:57.270Z,51.123047
2018-09-11T09:15:02.859Z,51.123047
2018-09-11T09:15:07.390Z,51.123047
2018-09-11T09:15:11.942Z,51.025391
2018-09-11T09:15:16.511Z,50.927734
2018-09-11T09:15:21.068Z,51.123047
2018-09-11T09:15:25.633Z,51.123047
2018-09-11T09:15:30.202Z,51.123047
2018-09-11T09:15:34.886Z,51.220703
2018-09-11T09:15:39.384Z,51.324463
2018-09-11T09:15:43.981Z,51.623535
2018-09-11T09:15:48.549Z,51.623535
2018-09-11T09:15:53.110Z,51.623535
2018-09-11T09:15:57.661Z,51.623535
2018-09-11T09:16:02.419Z,51.721191
2018-09-11T09:16:07.030Z,51.721191
2018-09-11T09:16:11.630Z,51.818848
2018-09-11T09:16:16.233Z,51.818848
2018-09-11T09:16:20.837Z,51.818848
2018-09-11T09:16:25.349Z,51.721191
2018-09-11T09:16:29.999Z,51.623535
2018-09-11T09:16:34.587Z,51.422119
2018-09-11T09:16:40.149Z,51.623535
2018-09-11T09:16:44.747Z,51.818848
2018-09-11T09:16:49.348Z,51.916504
2018-09-11T09:16:53.950Z,51.916504
2018-09-11T09:16:58.508Z,52.11792
2018-09-11T09:17:03.107Z,52.215576
2018-09-11T09:17:07.669Z,52.215576
2018-09-11T09:17:12.228Z,52.11792
2018-09-11T09:17:16.828Z,52.11792
2018-09-11T09:17:21.428Z,52.11792
2018-09-11T09:17:26.061Z,52.215576
2018-09-11T09:17:30.711Z,52.215576
2018-09-11T09:17:35.312Z,52.319336
2018-09-11T09:17:39.917Z,52.319336
2018-09-11T09:17:44.660Z,52.416992
2018-09-11T09:17:49.239Z,52.416992
2018-09-11T09:17:53.877Z,52.514648
2018-09-11T09:17:58.508Z,52.514648
2018-09-11T09:18:03.183Z,52.319336
2018-09-11T09:18:07.630Z,52.215576
2018-09-11T09:18:12.247Z,52.020264
2018-09-11T09:18:16.911Z,52.020264
2018-09-11T09:18:21.520Z,52.020264
2018-09-11T09:18:26.101Z,52.11792
2018-09-11T09:18:30.703Z,52.020264
2018-09-11T09:18:35.270Z,51.916504
2018-09-11T09:18:39.868Z,51.916504
2018-09-11T09:18:44.459Z,52.020264
2018-09-11T09:18:49.079Z,52.11792
2018-09-11T09:18:53.631Z,52.11792
2018-09-11T09:18:58.310Z,52.191162
2018-09-11T09:19:02.868Z,52.191162
2018-09-11T09:19:07.474Z,52.191162
2018-09-11T09:19:12.071Z,52.093506
2018-09-11T09:19:17.639Z,52.093506
2018-09-11T09:19:22.181Z,52.093506
2018-09-11T09:19:26.749Z,52.093506
2018-09-11T09:19:31.309Z,52.093506
2018-09-11T09:19:36.110Z,52.093506
2018-09-11T09:19:40.707Z,52.191162
2018-09-11T09:19:45.267Z,52.294922
2018-09-11T09:19:49.916Z,52.294922
2018-09-11T09:19:54.467Z,51.99585
2018-09-11T09:19:59.019Z,51.89209
2018-09-11T09:20:03.588Z,52.294922
2018-09-11T09:20:24.271Z,52.294922
2018-09-11T09:20:39.549Z,51.99585
2018-09-11T09:20:45.253Z,51.99585
2018-09-11T09:20:50.960Z,51.696777
2018-09-11T09:20:57.768Z,51.495361
2018-09-11T09:21:03.647Z,51.696777
2018-09-11T09:21:09.260Z,51.696777
2018-09-11T09:21:14.939Z,51.495361
2018-09-11T09:21:31.031Z,51.794434
2018-09-11T09:21:36.708Z,51.89209
2018-09-11T09:21:42.389Z,51.794434
2018-09-11T09:22:12.711Z,51.696777
2018-09-11T09:22:18.467Z,51.696777
2018-09-11T09:22:24.268Z,51.89209
2018-09-11T09:22:30.029Z,51.99585
2018-09-11T09:22:35.871Z,51.99585
2018-09-11T09:22:41.680Z,51.99585
2018-09-11T09:22:47.428Z,51.794434
2018-09-11T09:22:53.187Z,51.495361
2018-09-11T09:22:58.980Z,51.519775
2018-09-11T09:23:04.789Z,51.519775
2018-09-11T09:23:11.620Z,51.623535
2018-09-11T09:23:17.388Z,51.721191
2018-09-11T09:23:23.109Z,52.11792
2018-09-11T09:23:28.828Z,52.215576
2018-09-11T09:23:34.580Z,52.215576
2018-09-11T09:23:40.348Z,52.319336
2018-09-11T09:23:46.110Z,52.319336
2018-09-11T09:23:51.864Z,52.319336
2018-09-11T09:23:57.549Z,52.11792
2018-09-11T09:24:03.298Z,52.11792
2018-09-11T09:24:09.034Z,52.215576
2018-09-11T09:24:14.830Z,52.319336
2018-09-11T09:24:20.631Z,52.215576
2018-09-11T09:24:27.475Z,52.215576
2018-09-11T09:24:33.230Z,52.215576
2018-09-11T09:24:39.108Z,52.11792
2018-09-11T09:24:44.821Z,52.11792
2018-09-11T09:24:50.660Z,52.093506
2018-09-11T09:24:56.370Z,52.093506
2018-09-11T09:25:02.270Z,51.99585
2018-09-11T09:25:08.028Z,51.99585
2018-09-11T09:25:13.828Z,51.89209
2018-09-11T09:25:19.590Z,51.89209
2018-09-11T09:25:25.350Z,51.696777
2018-09-11T09:25:31.239Z,51.696777
2018-09-11T09:25:36.981Z,51.599121
2018-09-11T09:25:42.706Z,51.599121
2018-09-11T09:25:49.588Z,51.696777
2018-09-11T09:25:55.352Z,51.794434
2018-09-11T09:26:01.110Z,51.599121
2018-09-11T09:26:07.829Z,51.599121
2018-09-11T09:26:13.638Z,51.599121
2018-09-11T09:26:19.431Z,51.300049
2018-09-11T09:26:25.150Z,51.397705
2018-09-11T09:26:30.941Z,51.696777
2018-09-11T09:26:36.637Z,51.794434
2018-09-11T09:26:42.353Z,51.89209
2018-09-11T09:26:48.114Z,51.89209
2018-09-11T09:26:53.789Z,51.89209
2018-09-11T09:26:59.584Z,51.89209
2018-09-11T09:27:05.354Z,51.89209
2018-09-11T09:27:11.201Z,51.89209
2018-09-11T09:27:16.951Z,51.99585
2018-09-11T09:27:22.669Z,51.794434
2018-09-11T09:27:28.485Z,51.599121
2018-09-11T09:27:34.293Z,51.495361
2018-09-11T09:27:39.992Z,51.397705
2018-09-11T09:27:45.709Z,51.300049
2018-09-11T09:27:52.470Z,51.300049
2018-09-11T09:27:58.191Z,51.300049
2018-09-11T09:28:03.909Z,51.300049
2018-09-11T09:28:09.631Z,51.196289
2018-09-11T09:28:15.391Z,51.397705
2018-09-11T09:28:21.111Z,51.397705
2018-09-11T09:28:26.911Z,51.397705
2018-09-11T09:28:33.631Z,51.397705
2018-09-11T09:28:39.433Z,51.495361
2018-09-11T09:28:45.148Z,51.599121
2018-09-11T09:28:50.869Z,51.599121
2018-09-11T09:28:56.670Z,51.599121
2018-09-11T09:29:02.469Z,51.495361
2018-09-11T09:29:08.189Z,51.495361
2018-09-11T09:29:13.990Z,51.495361
2018-09-11T09:29:19.711Z,51.397705
2018-09-11T09:29:25.475Z,51.300049
2018-09-11T09:29:31.195Z,51.196289
2018-09-11T09:29:37.032Z,51.196289
2018-09-11T09:29:42.784Z,51.098633
2018-09-11T09:29:48.549Z,51.098633
2018-09-11T09:29:54.273Z,51.098633
2018-09-11T09:29:59.992Z,51.000977
2018-09-11T09:30:05.750Z,50.927734
2018-09-11T09:30:11.513Z,50.927734
2018-09-11T09:30:17.241Z,50.927734
2018-09-11T09:30:22.992Z,51.123047
2018-09-11T09:30:28.711Z,51.324463
2018-09-11T09:30:34.469Z,51.422119
2018-09-11T09:30:40.228Z,51.519775
2018-09-11T09:30:45.990Z,51.623535
2018-09-11T09:30:51.711Z,51.721191
2018-09-11T09:30:57.431Z,51.818848
2018-09-11T09:31:03.239Z,52.020264
2018-09-11T09:31:10.277Z,51.916504
2018-09-11T09:31:16.195Z,51.818848
2018-09-11T09:31:21.987Z,51.623535
2018-09-11T09:31:27.795Z,51.599121
2018-09-11T09:31:33.832Z,51.495361
2018-09-11T09:31:40.622Z,51.196289
2018-09-11T09:31:46.289Z,51.098633
2018-09-11T09:31:51.952Z,51.220703
2018-09-11T09:31:57.856Z,51.220703
2018-09-11T09:32:03.540Z,51.324463
2018-09-11T09:32:09.213Z,51.324463
2018-09-11T09:32:14.925Z,51.422119
2018-09-11T09:32:20.649Z,51.519775
2018-09-11T09:32:26.341Z,51.422119
2018-09-11T09:32:32.033Z,51.422119
2018-09-11T09:32:37.735Z,51.623535
2018-09-11T09:32:43.463Z,51.519775
2018-09-11T09:32:49.146Z,51.422119
2018-09-11T09:32:54.764Z,51.324463
2018-09-11T09:33:00.432Z,51.220703
2018-09-11T09:33:06.134Z,51.324463
2018-09-11T09:33:11.867Z,51.519775
2018-09-11T09:33:17.559Z,51.721191
2018-09-11T09:33:23.323Z,51.721191
2018-09-11T09:33:29.074Z,51.721191
2018-09-11T09:33:34.802Z,51.818848
2018-09-11T09:33:40.568Z,51.916504
2018-09-11T09:33:46.244Z,52.020264
2018-09-11T09:33:51.966Z,52.11792
2018-09-11T09:33:57.784Z,52.215576
2018-09-11T09:34:03.639Z,52.319336
2018-09-11T09:34:09.361Z,52.416992
2018-09-11T09:34:15.434Z,52.514648
2018-09-11T09:34:21.224Z,52.319336
2018-09-11T09:34:27.323Z,52.215576
2018-09-11T09:34:33.134Z,52.618408
2018-09-11T09:34:39.100Z,52.294922
2018-09-11T09:34:44.905Z,52.191162
2018-09-11T09:34:50.694Z,51.99585
2018-09-11T09:34:56.570Z,51.867676
2018-09-11T09:35:02.420Z,51.025391
2018-09-11T09:35:08.406Z,50.109863
2018-09-11T09:35:14.208Z,50.183105
2018-09-11T09:35:20.319Z,50.061035
2018-09-11T09:35:26.126Z,48.547363
2018-09-11T09:35:32.122Z,48.028564
2018-09-11T09:35:38.116Z,47.412109
2018-09-11T09:35:43.849Z,46.893311
2018-09-11T09:35:49.672Z,46.063232
2018-09-11T09:35:55.538Z,45.245361
2018-09-11T09:36:01.619Z,45.422363
2018-09-11T09:36:07.715Z,44.293213
2018-09-11T09:36:13.799Z,43.09082
2018-09-11T09:36:19.537Z,42.474365
2018-09-11T09:36:25.197Z,42.06543
2018-09-11T09:36:30.973Z,41.845703
2018-09-11T09:36:36.590Z,42.315674
2018-09-11T09:36:42.251Z,41.802979
2018-09-11T09:36:47.988Z,43.475342
2018-09-11T09:36:53.808Z,45.916748
2018-09-11T09:37:00.465Z,41.687012
2018-09-11T09:37:06.132Z,40.307617
2018-09-11T09:37:11.800Z,40.606689
2018-09-11T09:37:17.443Z,40.686035
2018-09-11T09:37:23.200Z,40.289307
2018-09-11T09:37:28.922Z,39.996338
2018-09-11T09:37:35.968Z,40.093994
2018-09-11T09:37:41.824Z,39.898682
2018-09-11T09:37:47.531Z,39.703369
2018-09-11T09:37:53.468Z,39.801025
2018-09-11T09:37:59.203Z,39.501953
2018-09-11T09:38:04.914Z,39.404297
2018-09-11T09:38:10.579Z,39.404297
2018-09-11T09:38:16.347Z,39.404297
2018-09-11T09:38:22.032Z,39.208984
2018-09-11T09:38:27.774Z,39.306641
2018-09-11T09:38:33.502Z,39.306641
2018-09-11T09:38:39.285Z,39.404297
2018-09-11T09:38:45.981Z,39.801025
2018-09-11T09:38:51.647Z,39.801025
2018-09-11T09:38:57.332Z,40.386963
2018-09-11T09:39:03.180Z,40.19165
2018-09-11T09:39:09.278Z,39.996338
2018-09-11T09:39:15.239Z,40.093994
2018-09-11T09:39:20.964Z,40.093994
2018-09-11T09:39:26.782Z,40.783691
2018-09-11T09:39:32.503Z,40.686035
2018-09-11T09:39:38.260Z,40.289307
2018-09-11T09:39:44.026Z,39.819336
2018-09-11T09:39:49.753Z,40.112305
2018-09-11T09:39:55.488Z,40.405273
2018-09-11T09:40:01.223Z,40.307617
2018-09-11T09:40:06.912Z,41.192627
2018-09-11T09:40:13.673Z,41.174316
2018-09-11T09:40:20.374Z,40.289307
2018-09-11T09:40:26.137Z,39.801025
2018-09-11T09:40:31.839Z,39.703369
2018-09-11T09:40:37.583Z,39.306641
2018-09-11T09:40:43.314Z,39.306641
2018-09-11T09:40:49.024Z,39.111328
2018-09-11T09:40:54.735Z,39.111328
2018-09-11T09:41:00.508Z,38.916016
2018-09-11T09:41:06.280Z,39.208984
2018-09-11T09:41:12.005Z,39.404297
2018-09-11T09:41:17.721Z,40.209961
2018-09-11T09:41:23.487Z,40.802002
2018-09-11T09:41:30.191Z,42.767334
2018-09-11T09:41:35.892Z,41.394043
2018-09-11T09:41:41.596Z,42.004395
2018-09-11T09:41:47.349Z,40.722656
2018-09-11T09:41:53.074Z,40.527344
2018-09-11T09:41:58.859Z,40.625
2018-09-11T09:42:04.572Z,40.429688
2018-09-11T09:42:10.342Z,40.228271
2018-09-11T09:42:16.093Z,40.252686
2018-09-11T09:42:21.771Z,40.447998
2018-09-11T09:42:28.490Z,40.545654
2018-09-11T09:42:34.188Z,40.838623
2018-09-11T09:42:39.954Z,41.156006
2018-09-11T09:42:45.707Z,41.448975
2018-09-11T09:42:51.456Z,41.748047
2018-09-11T09:42:57.175Z,41.448975
2018-09-11T09:43:02.879Z,41.552734
2018-09-11T09:43:08.606Z,41.552734
2018-09-11T09:43:14.321Z,41.448975
2018-09-11T09:43:20.999Z,41.473389
2018-09-11T09:43:26.744Z,41.473389
2018-09-11T09:43:32.397Z,41.473389
2018-09-11T09:43:38.104Z,41.668701
2018-09-11T09:43:43.784Z,41.784668
2018-09-11T09:43:49.598Z,41.888428
2018-09-11T09:43:55.275Z,42.08374
2018-09-11T09:44:01.029Z,42.199707
2018-09-11T09:44:06.719Z,42.401123
2018-09-11T09:44:12.424Z,42.614746
2018-09-11T09:44:18.174Z,42.816162
2018-09-11T09:44:23.901Z,43.109131
2018-09-11T09:44:29.633Z,43.603516
2018-09-11T09:44:35.289Z,44.293213
2018-09-11T09:44:41.021Z,44.0979
2018-09-11T09:44:47.755Z,43.701172
2018-09-11T09:44:53.471Z,44.000244
2018-09-11T09:44:59.228Z,43.97583
2018-09-11T09:45:04.949Z,43.188477
2018-09-11T09:45:10.654Z,42.694092
2018-09-11T09:45:16.368Z,42.791748
2018-09-11T09:45:22.110Z,42.773438
2018-09-11T09:45:27.888Z,43.170166
2018-09-11T09:45:33.592Z,42.96875
2018-09-11T09:45:39.336Z,42.578125
2018-09-11T09:45:45.100Z,42.96875
2018-09-11T09:45:50.828Z,42.578125
2018-09-11T09:45:56.599Z,42.675781
2018-09-11T09:46:02.384Z,42.279053
2018-09-11T09:46:08.174Z,42.08374
2018-09-11T09:46:13.969Z,41.986084
2018-09-11T09:46:19.641Z,42.08374
2018-09-11T09:46:25.333Z,42.578125
2018-09-11T09:46:32.037Z,43.170166
2018-09-11T09:46:37.741Z,43.95752
2018-09-11T09:46:43.482Z,43.756104
2018-09-11T09:46:49.254Z,43.463135
2018-09-11T09:46:54.980Z,43.066406
2018-09-11T09:47:00.719Z,42.08374
2018-09-11T09:47:07.461Z,42.181396
2018-09-11T09:47:13.188Z,42.303467
2018-09-11T09:47:18.916Z,42.889404
2018-09-11T09:47:25.648Z,42.694092
2018-09-11T09:47:31.352Z,42.889404
2018-09-11T09:47:37.096Z,42.889404
2018-09-11T09:47:42.819Z,43.481445
2018-09-11T09:47:48.623Z,42.694092
2018-09-11T09:47:54.230Z,42.889404
2018-09-11T09:47:59.969Z,43.09082